METAR Data
IDs: Format: Raw Decoded Include TAF

Data at: 0140 UTC 20 Jan 2022

UKBB 200130Z 20004MPS 9999 OVC022 M02/M04 Q1015 NOSIG